Time;durP1;ratioP1;P1;durP2;ratioP2;P2;SDS_P1;SDS_P2;PMS_P1;PMS_P2;Temp;Humidity;BMP_temperature;BMP_pressure;BME280_temperature;BME280_humidity;BME280_pressure;Samples;Min_cycle;Max_cycle;Signal;HPM_P1;HPM_P2
2021/07/01 11:05:35;;;;;;;421.67;400.63;;;12.80;99.90;;;;;;5071042;28;20652;-66
2021/07/01 11:08:01;;;;;;;470.67;446.40;;;12.70;99.90;;;;;;5070914;28;20203;-66
2021/07/01 11:10:41;;;;;;;513.25;486.05;;;12.80;99.90;;;;;;5070957;28;20622;-66
2021/07/01 11:13:10;;;;;;;547.08;517.42;;;12.80;99.90;;;;;;5069797;28;20637;-66
2021/07/01 11:16:04;;;;;;;605.55;570.47;;;12.80;99.90;;;;;;5071041;28;20245;-66
2021/07/01 11:18:48;;;;;;;620.00;583.78;;;12.80;99.90;;;;;;5071055;28;20517;-66
2021/07/01 11:21:17;;;;;;;632.17;595.28;;;12.80;99.90;;;;;;5070742;28;20171;-66
2021/07/01 11:23:45;;;;;;;655.03;615.83;;;12.90;99.90;;;;;;5070692;28;20202;-66
2021/07/01 11:39:04;;;;;;;534.40;505.60;;;12.90;99.90;;;;;;5071177;28;20575;-66
2021/07/01 11:41:31;;;;;;;590.58;557.03;;;13.00;99.90;;;;;;5071020;28;20625;-66
2021/07/01 11:43:58;;;;;;;639.13;601.30;;;13.10;99.90;;;;;;5069684;28;20573;-67
2021/07/01 11:46:24;;;;;;;689.15;647.20;;;13.10;99.90;;;;;;5070945;28;20248;-67
2021/07/01 11:48:52;;;;;;;661.90;622.13;;;13.20;99.90;;;;;;5070779;28;20164;-67
2021/07/01 11:51:21;;;;;;;666.88;626.33;;;13.20;99.90;;;;;;5070753;28;20673;-67
2021/07/01 11:53:48;;;;;;;646.28;608.00;;;13.30;99.90;;;;;;5070759;28;20263;-67
2021/07/01 11:56:14;;;;;;;651.55;612.60;;;13.20;99.90;;;;;;5070849;28;20646;-67
2021/07/01 11:58:42;;;;;;;661.08;621.00;;;13.20;99.90;;;;;;5070815;28;20208;-67
2021/07/01 12:01:08;;;;;;;659.42;619.90;;;13.20;99.90;;;;;;5070689;28;20195;-67
2021/07/01 12:03:35;;;;;;;674.30;633.33;;;13.20;99.90;;;;;;5070633;28;20196;-67
2021/07/01 12:06:02;;;;;;;683.92;642.17;;;13.20;99.90;;;;;;5069308;28;20179;-67
2021/07/01 12:08:28;;;;;;;672.22;631.55;;;13.10;99.90;;;;;;5069362;28;20177;-67
2021/07/01 12:11:05;;;;;;;676.53;635.53;;;13.10;99.90;;;;;;5070532;28;20191;-67
2021/07/01 12:13:31;;;;;;;673.58;632.90;;;13.10;99.90;;;;;;5070541;28;20172;-67
2021/07/01 12:16:16;;;;;;;698.35;655.63;;;13.10;99.90;;;;;;5070387;28;20171;-67
2021/07/01 12:18:45;;;;;;;659.85;620.20;;;13.00;99.90;;;;;;5069997;28;20286;-66
2021/07/01 12:21:11;;;;;;;665.92;625.83;;;13.10;99.90;;;;;;5070231;28;20168;-66
2021/07/01 12:23:45;;;;;;;691.55;649.50;;;13.10;99.90;;;;;;5070217;28;20172;-66
2021/07/01 12:26:32;;;;;;;688.42;646.45;;;13.20;99.90;;;;;;5070057;28;20172;-67
2021/07/01 12:28:59;;;;;;;667.22;627.20;;;13.20;99.90;;;;;;5070160;28;20625;-67
2021/07/01 12:31:25;;;;;;;659.35;619.83;;;13.20;99.90;;;;;;5069969;28;20197;-67
2021/07/01 12:34:03;;;;;;;678.38;637.20;;;13.20;99.90;;;;;;5070009;28;20164;-67
2021/07/01 12:36:50;;;;;;;670.70;629.95;;;13.30;99.90;;;;;;5069666;28;20172;-67
2021/07/01 12:39:21;;;;;;;659.13;619.67;;;13.30;99.90;;;;;;5069773;28;20168;-67
2021/07/01 12:41:50;;;;;;;643.85;605.28;;;13.30;99.90;;;;;;5069909;28;20222;-67
2021/07/01 12:44:22;;;;;;;672.05;631.40;;;13.10;99.90;;;;;;5069688;28;20644;-67
2021/07/01 12:46:47;;;;;;;671.45;630.95;;;13.10;99.90;;;;;;5069750;28;20173;-67
2021/07/01 12:49:20;;;;;;;670.05;629.65;;;13.10;99.90;;;;;;5062077;28;20291;-67
2021/07/01 12:51:49;;;;;;;668.88;628.75;;;13.10;99.90;;;;;;5055283;28;20177;-67
2021/07/01 12:54:15;;;;;;;653.97;614.80;;;13.00;99.90;;;;;;5056280;28;20165;-67
2021/07/01 12:56:40;;;;;;;666.72;626.45;;;13.10;99.90;;;;;;5056288;28;20287;-67
2021/07/01 12:59:06;;;;;;;684.05;642.83;;;13.10;99.90;;;;;;5056115;28;20169;-67
2021/07/01 13:01:32;;;;;;;682.58;640.88;;;13.10;99.90;;;;;;5056263;28;20180;-67
2021/07/01 13:03:58;;;;;;;676.67;635.72;;;13.10;99.90;;;;;;5055032;28;20219;-67
2021/07/01 13:06:25;;;;;;;666.72;626.45;;;13.10;99.90;;;;;;5056180;28;20188;-67
2021/07/01 13:08:50;;;;;;;680.50;639.10;;;13.10;99.90;;;;;;5055182;28;20648;-67
2021/07/01 13:11:16;;;;;;;674.10;633.30;;;13.10;99.90;;;;;;5054894;28;20173;-67
2021/07/01 13:13:42;;;;;;;660.95;621.30;;;13.10;99.90;;;;;;5055934;28;20276;-66
2021/07/01 13:16:08;;;;;;;675.30;633.83;;;13.10;99.90;;;;;;5055929;28;20181;-67
2021/07/01 13:18:33;;;;;;;652.55;613.63;;;13.10;99.90;;;;;;5055886;28;20204;-67
2021/07/01 13:21:09;;;;;;;677.13;635.90;;;13.00;99.90;;;;;;5055824;28;20165;-67
2021/07/01 13:23:35;;;;;;;681.33;639.85;;;13.00;99.90;;;;;;5054653;28;20513;-67
2021/07/01 13:26:13;;;;;;;672.70;632.17;;;13.00;99.90;;;;;;5055791;28;20173;-67
2021/07/01 13:28:40;;;;;;;675.75;634.80;;;13.00;99.90;;;;;;5055663;28;20173;-67
2021/07/01 13:31:06;;;;;;;675.47;634.20;;;13.10;99.90;;;;;;5054396;28;20554;-67
2021/07/01 13:33:32;;;;;;;672.63;631.92;;;13.10;99.90;;;;;;5055481;28;20660;-67
2021/07/01 13:35:59;;;;;;;689.95;647.78;;;13.00;99.90;;;;;;5055633;28;20197;-66
2021/07/01 13:38:25;;;;;;;683.03;641.20;;;13.10;99.90;;;;;;5055433;28;20270;-67
2021/07/01 13:40:53;;;;;;;699.20;656.38;;;13.00;99.90;;;;;;5054250;28;20645;-67
2021/07/01 14:03:47;;;;;;;529.60;500.92;;;13.10;99.90;;;;;;5071165;28;20542;-66
2021/07/01 14:06:14;;;;;;;610.55;575.20;;;13.10;99.90;;;;;;5070978;28;20215;-66
2021/07/01 14:08:41;;;;;;;589.70;556.40;;;13.20;99.90;;;;;;5070934;28;20180;-66
2021/07/01 14:11:15;;;;;;;637.30;599.88;;;13.10;99.90;;;;;;5070931;28;20160;-66
2021/07/01 14:13:46;;;;;;;631.75;594.90;;;13.10;99.90;;;;;;5070991;28;20160;-66
2021/07/01 14:16:15;;;;;;;640.63;602.88;;;13.20;99.90;;;;;;5070956;28;20240;-66
2021/07/01 14:18:47;;;;;;;655.35;616.20;;;13.20;99.90;;;;;;5070724;28;20172;-66
2021/07/01 14:21:13;;;;;;;645.45;607.17;;;13.10;99.90;;;;;;5070830;28;20179;-66
2021/07/01 14:23:39;;;;;;;614.80;579.03;;;13.10;99.90;;;;;;5070495;28;20196;-66
2021/07/01 14:26:20;;;;;;;640.80;602.65;;;13.10;99.90;;;;;;5070730;28;20557;-66
2021/07/01 14:28:56;;;;;;;621.35;585.03;;;13.00;99.90;;;;;;5070871;28;20172;-66
2021/07/01 14:31:21;;;;;;;632.25;595.22;;;13.00;99.90;;;;;;5070494;28;20602;-66
2021/07/01 14:33:53;;;;;;;656.05;616.83;;;13.10;99.90;;;;;;5070484;28;20248;-66
2021/07/01 14:36:26;;;;;;;645.00;606.83;;;13.10;99.90;;;;;;5070343;28;20218;-66
2021/07/01 14:38:52;;;;;;;656.50;617.38;;;13.20;99.90;;;;;;5070393;28;20164;-66
2021/07/01 14:41:26;;;;;;;676.20;635.20;;;13.10;99.90;;;;;;5070550;28;20569;-66
2021/07/01 15:14:54;;;;;;;479.85;454.63;;;12.90;99.90;;;;;;5071011;28;20550;-66
2021/07/01 15:17:21;;;;;;;533.55;504.83;;;13.00;99.90;;;;;;5071017;28;20171;-67
2021/07/01 15:19:47;;;;;;;557.33;526.95;;;13.00;99.90;;;;;;5071092;28;20286;-67
2021/07/01 15:22:14;;;;;;;573.10;540.58;;;13.00;99.90;;;;;;5070863;28;20179;-67
2021/07/01 15:24:41;;;;;;;590.13;556.92;;;13.00;99.90;;;;;;5071111;28;20521;-67
2021/07/01 15:27:07;;;;;;;623.78;587.65;;;12.90;99.90;;;;;;5069879;28;20172;-67
2021/07/01 16:06:34;;;;;;;403.90;384.00;;;12.50;99.90;;;;;;5070976;28;20513;-66
2021/07/01 16:08:59;;;;;;;469.70;445.52;;;12.60;99.90;;;;;;5071226;28;20180;-67
2021/07/01 16:11:25;;;;;;;494.02;468.15;;;12.60;99.90;;;;;;5070777;28;20173;-67
2021/07/01 16:13:50;;;;;;;479.02;454.17;;;12.70;99.90;;;;;;5070850;28;20173;-67
